sensor_id;sensor_type;location;lat;lon;timestamp;pressure;altitude;pressure_sealevel;temperature;humidity
41712;BME280;27399;51.516;13.670;2023-03-03T00:01:26;101143.44;;;1.93;83.65
41712;BME280;27399;51.516;13.670;2023-03-03T00:03:53;101136.91;;;2.30;82.55
41712;BME280;27399;51.516;13.670;2023-03-03T00:06:19;101131.31;;;2.21;82.86
41712;BME280;27399;51.516;13.670;2023-03-03T00:08:45;101134.88;;;2.47;82.00
41712;BME280;27399;51.516;13.670;2023-03-03T00:11:11;101125.00;;;2.66;81.08
41712;BME280;27399;51.516;13.670;2023-03-03T00:13:44;101130.78;;;2.55;81.64
41712;BME280;27399;51.516;13.670;2023-03-03T00:16:33;101122.50;;;2.44;82.23
41712;BME280;27399;51.516;13.670;2023-03-03T00:19:00;101131.97;;;2.63;81.95
41712;BME280;27399;51.516;13.670;2023-03-03T00:21:40;101130.47;;;2.46;82.15
41712;BME280;27399;51.516;13.670;2023-03-03T00:24:38;101130.63;;;2.75;81.21
41712;BME280;27399;51.516;13.670;2023-03-03T00:27:21;101147.94;;;2.44;80.94
41712;BME280;27399;51.516;13.670;2023-03-03T00:29:59;101143.09;;;2.30;81.18
41712;BME280;27399;51.516;13.670;2023-03-03T00:32:29;101141.38;;;2.08;81.68
41712;BME280;27399;51.516;13.670;2023-03-03T00:35:01;101137.34;;;2.42;81.18
41712;BME280;27399;51.516;13.670;2023-03-03T00:37:42;101139.19;;;1.96;82.86
41712;BME280;27399;51.516;13.670;2023-03-03T00:40:21;101135.44;;;2.14;82.27
41712;BME280;27399;51.516;13.670;2023-03-03T00:42:53;101135.06;;;2.27;81.78
41712;BME280;27399;51.516;13.670;2023-03-03T00:47:53;101132.44;;;2.27;81.29
41712;BME280;27399;51.516;13.670;2023-03-03T00:50:27;101136.06;;;2.55;80.18
41712;BME280;27399;51.516;13.670;2023-03-03T00:53:06;101134.28;;;2.30;80.90
41712;BME280;27399;51.516;13.670;2023-03-03T00:55:35;101130.66;;;2.04;82.21
41712;BME280;27399;51.516;13.670;2023-03-03T00:58:00;101136.91;;;2.06;82.05
41712;BME280;27399;51.516;13.670;2023-03-03T01:00:26;101142.16;;;2.30;81.69
41712;BME280;27399;51.516;13.670;2023-03-03T01:02:52;101141.00;;;2.46;80.85
41712;BME280;27399;51.516;13.670;2023-03-03T01:05:18;101130.50;;;2.23;81.48
41712;BME280;27399;51.516;13.670;2023-03-03T01:07:43;101135.88;;;2.02;81.82
41712;BME280;27399;51.516;13.670;2023-03-03T01:10:10;101120.22;;;2.29;81.20
41712;BME280;27399;51.516;13.670;2023-03-03T01:12:36;101114.03;;;2.05;81.24
41712;BME280;27399;51.516;13.670;2023-03-03T01:15:12;101118.47;;;2.06;82.31
41712;BME280;27399;51.516;13.670;2023-03-03T01:17:38;101112.38;;;2.07;82.16
41712;BME280;27399;51.516;13.670;2023-03-03T01:20:05;101111.84;;;2.15;81.45
41712;BME280;27399;51.516;13.670;2023-03-03T01:22:32;101112.75;;;2.17;81.34
41712;BME280;27399;51.516;13.670;2023-03-03T01:24:57;101122.44;;;2.19;81.60
41712;BME280;27399;51.516;13.670;2023-03-03T01:27:23;101121.56;;;2.42;81.03
41712;BME280;27399;51.516;13.670;2023-03-03T01:29:49;101126.38;;;2.30;81.07
41712;BME280;27399;51.516;13.670;2023-03-03T01:32:14;101115.22;;;2.13;81.64
41712;BME280;27399;51.516;13.670;2023-03-03T01:34:40;101118.47;;;2.30;81.27
41712;BME280;27399;51.516;13.670;2023-03-03T01:37:05;101130.16;;;1.90;82.33
41712;BME280;27399;51.516;13.670;2023-03-03T01:39:34;101114.66;;;1.97;82.43
41712;BME280;27399;51.516;13.670;2023-03-03T01:42:02;101104.03;;;1.72;82.36
41712;BME280;27399;51.516;13.670;2023-03-03T01:44:27;101123.06;;;1.87;82.01
41712;BME280;27399;51.516;13.670;2023-03-03T01:47:16;101119.72;;;1.68;82.73
41712;BME280;27399;51.516;13.670;2023-03-03T01:49:48;101110.91;;;2.15;81.81
41712;BME280;27399;51.516;13.670;2023-03-03T01:52:26;101114.38;;;2.14;81.32
41712;BME280;27399;51.516;13.670;2023-03-03T01:54:57;101115.84;;;2.06;81.56
41712;BME280;27399;51.516;13.670;2023-03-03T01:57:38;101114.38;;;2.14;81.67
41712;BME280;27399;51.516;13.670;2023-03-03T02:00:06;101132.66;;;1.86;82.43
41712;BME280;27399;51.516;13.670;2023-03-03T02:02:33;101117.75;;;2.10;82.07
41712;BME280;27399;51.516;13.670;2023-03-03T02:05:00;101113.38;;;2.10;81.31
41712;BME280;27399;51.516;13.670;2023-03-03T02:07:27;101109.91;;;1.64;82.64
41712;BME280;27399;51.516;13.670;2023-03-03T02:12:47;101124.84;;;1.88;82.83
41712;BME280;27399;51.516;13.670;2023-03-03T02:17:42;101124.00;;;1.89;82.13
41712;BME280;27399;51.516;13.670;2023-03-03T02:20:27;101128.28;;;2.10;81.93
41712;BME280;27399;51.516;13.670;2023-03-03T02:23:03;101133.78;;;1.93;81.82
41712;BME280;27399;51.516;13.670;2023-03-03T02:25:39;101134.09;;;2.01;81.16
41712;BME280;27399;51.516;13.670;2023-03-03T02:28:06;101138.56;;;2.04;81.73
41712;BME280;27399;51.516;13.670;2023-03-03T02:30:37;101138.47;;;2.00;81.81
41712;BME280;27399;51.516;13.670;2023-03-03T02:33:03;101141.28;;;2.05;81.61
41712;BME280;27399;51.516;13.670;2023-03-03T02:35:35;101139.34;;;2.01;81.76
41712;BME280;27399;51.516;13.670;2023-03-03T02:41:03;101121.06;;;2.28;80.85
41712;BME280;27399;51.516;13.670;2023-03-03T02:46:22;101109.69;;;2.05;81.90
41712;BME280;27399;51.516;13.670;2023-03-03T02:48:47;101114.13;;;2.06;82.20
41712;BME280;27399;51.516;13.670;2023-03-03T02:51:13;101111.91;;;2.19;81.69
41712;BME280;27399;51.516;13.670;2023-03-03T02:53:39;101100.50;;;2.18;81.41
41712;BME280;27399;51.516;13.670;2023-03-03T02:56:06;101093.00;;;2.05;81.88
41712;BME280;27399;51.516;13.670;2023-03-03T02:58:34;101106.09;;;2.27;81.41
41712;BME280;27399;51.516;13.670;2023-03-03T03:01:00;101102.91;;;2.12;81.59
41712;BME280;27399;51.516;13.670;2023-03-03T03:03:28;101099.50;;;2.39;81.33
41712;BME280;27399;51.516;13.670;2023-03-03T03:05:54;101106.69;;;2.43;80.78
41712;BME280;27399;51.516;13.670;2023-03-03T03:08:20;101113.03;;;2.25;82.19
41712;BME280;27399;51.516;13.670;2023-03-03T03:10:45;101110.75;;;2.35;81.49
41712;BME280;27399;51.516;13.670;2023-03-03T03:13:11;101109.31;;;2.43;81.29
41712;BME280;27399;51.516;13.670;2023-03-03T03:15:37;101112.03;;;2.46;81.26
41712;BME280;27399;51.516;13.670;2023-03-03T03:18:03;101113.47;;;2.62;80.73
41712;BME280;27399;51.516;13.670;2023-03-03T03:20:28;101106.63;;;2.17;81.43
41712;BME280;27399;51.516;13.670;2023-03-03T03:22:54;101116.94;;;2.11;82.81
41712;BME280;27399;51.516;13.670;2023-03-03T03:25:20;101110.16;;;2.42;81.63
41712;BME280;27399;51.516;13.670;2023-03-03T03:27:45;101104.56;;;2.32;82.04
41712;BME280;27399;51.516;13.670;2023-03-03T03:30:11;101108.50;;;2.45;81.35
41712;BME280;27399;51.516;13.670;2023-03-03T03:32:37;101111.59;;;2.58;80.68
41712;BME280;27399;51.516;13.670;2023-03-03T03:35:03;101111.25;;;2.48;80.94
41712;BME280;27399;51.516;13.670;2023-03-03T03:37:28;101124.16;;;2.41;81.42
41712;BME280;27399;51.516;13.670;2023-03-03T03:39:54;101123.88;;;2.33;81.70
41712;BME280;27399;51.516;13.670;2023-03-03T03:42:20;101129.47;;;2.18;82.35
41712;BME280;27399;51.516;13.670;2023-03-03T03:44:46;101124.31;;;2.21;81.77
41712;BME280;27399;51.516;13.670;2023-03-03T03:47:12;101122.75;;;2.26;82.35
41712;BME280;27399;51.516;13.670;2023-03-03T03:49:37;101127.00;;;1.76;83.49
41712;BME280;27399;51.516;13.670;2023-03-03T03:52:03;101134.03;;;1.99;83.32
41712;BME280;27399;51.516;13.670;2023-03-03T03:54:29;101133.09;;;1.97;83.02
41712;BME280;27399;51.516;13.670;2023-03-03T03:56:55;101133.63;;;1.89;83.27
41712;BME280;27399;51.516;13.670;2023-03-03T03:59:20;101137.69;;;2.27;82.46
41712;BME280;27399;51.516;13.670;2023-03-03T04:01:46;101137.91;;;2.33;82.07
41712;BME280;27399;51.516;13.670;2023-03-03T04:04:13;101139.38;;;2.25;82.06
41712;BME280;27399;51.516;13.670;2023-03-03T04:06:38;101136.28;;;2.13;82.68
41712;BME280;27399;51.516;13.670;2023-03-03T04:09:04;101144.00;;;1.85;83.51
41712;BME280;27399;51.516;13.670;2023-03-03T04:11:30;101131.97;;;2.15;82.72
41712;BME280;27399;51.516;13.670;2023-03-03T04:13:55;101133.28;;;2.26;83.07
41712;BME280;27399;51.516;13.670;2023-03-03T04:16:21;101152.47;;;1.99;83.50
41712;BME280;27399;51.516;13.670;2023-03-03T04:18:47;101150.91;;;2.29;82.40
41712;BME280;27399;51.516;13.670;2023-03-03T04:21:14;101158.59;;;2.47;81.41
41712;BME280;27399;51.516;13.670;2023-03-03T04:23:40;101153.88;;;2.38;81.88
41712;BME280;27399;51.516;13.670;2023-03-03T04:26:06;101125.69;;;2.11;81.83
41712;BME280;27399;51.516;13.670;2023-03-03T04:28:32;101143.75;;;2.25;82.05
41712;BME280;27399;51.516;13.670;2023-03-03T04:30:57;101145.91;;;2.12;82.30
41712;BME280;27399;51.516;13.670;2023-03-03T04:33:23;101157.28;;;2.11;82.27
41712;BME280;27399;51.516;13.670;2023-03-03T04:35:49;101148.94;;;2.23;82.46
41712;BME280;27399;51.516;13.670;2023-03-03T04:38:15;101149.56;;;2.16;82.10
41712;BME280;27399;51.516;13.670;2023-03-03T04:40:41;101156.81;;;1.99;82.73
41712;BME280;27399;51.516;13.670;2023-03-03T04:43:07;101153.53;;;2.05;82.87
41712;BME280;27399;51.516;13.670;2023-03-03T04:45:33;101153.53;;;2.05;83.19
41712;BME280;27399;51.516;13.670;2023-03-03T04:47:59;101153.38;;;2.01;83.61
41712;BME280;27399;51.516;13.670;2023-03-03T04:50:24;101157.28;;;2.11;83.32
41712;BME280;27399;51.516;13.670;2023-03-03T04:52:50;101153.16;;;2.18;82.46
41712;BME280;27399;51.516;13.670;2023-03-03T04:55:15;101157.09;;;2.07;83.37
41712;BME280;27399;51.516;13.670;2023-03-03T04:57:42;101153.03;;;2.15;82.77
41712;BME280;27399;51.516;13.670;2023-03-03T05:00:09;101157.50;;;2.17;83.02
41712;BME280;27399;51.516;13.670;2023-03-03T05:02:38;101152.63;;;2.04;83.27
41712;BME280;27399;51.516;13.670;2023-03-03T05:05:05;101142.78;;;2.47;82.18
41712;BME280;27399;51.516;13.670;2023-03-03T05:07:30;101133.88;;;2.43;82.25
41712;BME280;27399;51.516;13.670;2023-03-03T05:09:56;101137.13;;;2.60;81.47
41712;BME280;27399;51.516;13.670;2023-03-03T05:12:22;101116.94;;;2.35;81.92
41712;BME280;27399;51.516;13.670;2023-03-03T05:14:47;101129.63;;;2.23;82.62
41712;BME280;27399;51.516;13.670;2023-03-03T05:17:13;101134.22;;;2.28;82.61
41712;BME280;27399;51.516;13.670;2023-03-03T05:19:39;101128.03;;;2.28;83.54
41712;BME280;27399;51.516;13.670;2023-03-03T05:22:04;101133.16;;;2.23;82.79
41712;BME280;27399;51.516;13.670;2023-03-03T05:24:30;101140.16;;;1.98;84.11
41712;BME280;27399;51.516;13.670;2023-03-03T05:26:56;101139.69;;;2.10;84.30
41712;BME280;27399;51.516;13.670;2023-03-03T05:29:21;101139.19;;;1.96;83.39
41712;BME280;27399;51.516;13.670;2023-03-03T05:31:47;101125.44;;;1.81;83.44
41712;BME280;27399;51.516;13.670;2023-03-03T05:34:13;101146.19;;;1.73;83.61
41712;BME280;27399;51.516;13.670;2023-03-03T05:36:38;101140.94;;;2.20;83.34
41712;BME280;27399;51.516;13.670;2023-03-03T05:39:04;101150.00;;;2.04;83.44
41712;BME280;27399;51.516;13.670;2023-03-03T05:41:29;101150.66;;;1.98;83.69
41712;BME280;27399;51.516;13.670;2023-03-03T05:43:55;101129.41;;;2.16;83.15
41712;BME280;27399;51.516;13.670;2023-03-03T05:46:21;101138.84;;;2.11;82.54
41712;BME280;27399;51.516;13.670;2023-03-03T05:48:46;101140.16;;;2.23;82.36
41712;BME280;27399;51.516;13.670;2023-03-03T05:51:12;101133.84;;;2.42;81.51
41712;BME280;27399;51.516;13.670;2023-03-03T05:53:37;101129.81;;;1.80;82.06
41712;BME280;27399;51.516;13.670;2023-03-03T05:56:03;101131.63;;;2.06;82.09
41712;BME280;27399;51.516;13.670;2023-03-03T05:58:29;101138.22;;;1.72;82.49
41712;BME280;27399;51.516;13.670;2023-03-03T06:00:55;101142.16;;;2.06;82.21
41712;BME280;27399;51.516;13.670;2023-03-03T06:03:21;101146.25;;;1.97;81.95
41712;BME280;27399;51.516;13.670;2023-03-03T06:05:47;101142.16;;;1.83;82.41
41712;BME280;27399;51.516;13.670;2023-03-03T06:08:13;101152.56;;;1.57;82.72
41712;BME280;27399;51.516;13.670;2023-03-03T06:10:38;101141.31;;;1.61;82.36
41712;BME280;27399;51.516;13.670;2023-03-03T06:13:04;101155.56;;;1.66;82.28
41712;BME280;27399;51.516;13.670;2023-03-03T06:15:30;101172.78;;;1.81;82.00
41712;BME280;27399;51.516;13.670;2023-03-03T06:17:55;101190.25;;;1.79;82.51
41712;BME280;27399;51.516;13.670;2023-03-03T06:20:21;101188.16;;;1.93;81.64
41712;BME280;27399;51.516;13.670;2023-03-03T06:22:46;101198.78;;;1.73;81.88
41712;BME280;27399;51.516;13.670;2023-03-03T06:25:12;101189.72;;;1.44;83.00
41712;BME280;27399;51.516;13.670;2023-03-03T06:27:38;101170.03;;;1.55;81.85
41712;BME280;27399;51.516;13.670;2023-03-03T06:30:05;101175.41;;;1.58;81.53
41712;BME280;27399;51.516;13.670;2023-03-03T06:32:31;101193.34;;;1.68;82.69
41712;BME280;27399;51.516;13.670;2023-03-03T06:34:56;101195.25;;;1.73;82.71
41712;BME280;27399;51.516;13.670;2023-03-03T06:37:22;101196.06;;;1.93;81.86
41712;BME280;27399;51.516;13.670;2023-03-03T06:39:47;101206.41;;;1.67;81.91
41712;BME280;27399;51.516;13.670;2023-03-03T06:42:13;101209.72;;;1.84;81.23
41712;BME280;27399;51.516;13.670;2023-03-03T06:44:38;101196.41;;;1.79;81.54
41712;BME280;27399;51.516;13.670;2023-03-03T06:47:04;101202.00;;;1.66;82.51
41712;BME280;27399;51.516;13.670;2023-03-03T06:49:30;101206.25;;;1.85;82.56
41712;BME280;27399;51.516;13.670;2023-03-03T06:51:58;101216.28;;;1.94;82.30
41712;BME280;27399;51.516;13.670;2023-03-03T06:54:29;101212.22;;;1.81;82.18
41712;BME280;27399;51.516;13.670;2023-03-03T06:56:58;101210.44;;;1.57;83.46
41712;BME280;27399;51.516;13.670;2023-03-03T06:59:26;101212.31;;;1.82;82.86
41712;BME280;27399;51.516;13.670;2023-03-03T07:01:53;101215.81;;;1.83;83.49
41712;BME280;27399;51.516;13.670;2023-03-03T07:06:44;101223.94;;;1.66;84.20
41712;BME280;27399;51.516;13.670;2023-03-03T07:09:28;101232.97;;;1.73;83.64
41712;BME280;27399;51.516;13.670;2023-03-03T07:12:04;101223.13;;;2.13;82.25
41712;BME280;27399;51.516;13.670;2023-03-03T07:14:32;101223.72;;;2.06;81.85
41712;BME280;27399;51.516;13.670;2023-03-03T07:17:01;101226.16;;;1.78;81.75
41712;BME280;27399;51.516;13.670;2023-03-03T07:19:34;101229.94;;;1.85;81.88
41712;BME280;27399;51.516;13.670;2023-03-03T07:24:39;101216.38;;;1.74;82.50
41712;BME280;27399;51.516;13.670;2023-03-03T07:27:10;101220.94;;;1.57;82.97
41712;BME280;27399;51.516;13.670;2023-03-03T07:29:37;101218.44;;;1.39;83.90
41712;BME280;27399;51.516;13.670;2023-03-03T07:34:51;101220.41;;;1.66;82.97
41712;BME280;27399;51.516;13.670;2023-03-03T07:37:34;101215.78;;;1.60;83.59
41712;BME280;27399;51.516;13.670;2023-03-03T07:42:49;101222.78;;;1.60;83.44
41712;BME280;27399;51.516;13.670;2023-03-03T07:45:30;101223.50;;;1.55;83.50
41712;BME280;27399;51.516;13.670;2023-03-03T07:50:49;101232.28;;;2.00;82.47
41712;BME280;27399;51.516;13.670;2023-03-03T07:53:28;101238.97;;;1.92;83.85
41712;BME280;27399;51.516;13.670;2023-03-03T07:55:54;101239.03;;;1.93;83.52
41712;BME280;27399;51.516;13.670;2023-03-03T07:58:38;101242.28;;;2.09;82.29
41712;BME280;27399;51.516;13.670;2023-03-03T08:03:43;101244.66;;;1.80;84.43
41712;BME280;27399;51.516;13.670;2023-03-03T08:06:41;101249.88;;;2.01;84.17
41712;BME280;27399;51.516;13.670;2023-03-03T08:11:34;101258.03;;;1.86;84.29
41712;BME280;27399;51.516;13.670;2023-03-03T08:14:08;101253.66;;;1.64;83.79
41712;BME280;27399;51.516;13.670;2023-03-03T08:16:36;101260.69;;;1.86;83.64
41712;BME280;27399;51.516;13.670;2023-03-03T08:19:04;101264.91;;;1.61;83.56
41712;BME280;27399;51.516;13.670;2023-03-03T08:21:29;101270.28;;;1.85;82.84
41712;BME280;27399;51.516;13.670;2023-03-03T08:23:56;101264.59;;;1.75;82.50
41712;BME280;27399;51.516;13.670;2023-03-03T08:26:23;101268.69;;;2.12;82.73
41712;BME280;27399;51.516;13.670;2023-03-03T08:28:50;101262.38;;;2.29;82.08
41712;BME280;27399;51.516;13.670;2023-03-03T08:31:16;101257.56;;;1.96;82.41
41712;BME280;27399;51.516;13.670;2023-03-03T08:33:42;101251.31;;;1.93;82.47
41712;BME280;27399;51.516;13.670;2023-03-03T08:36:08;101246.06;;;2.15;82.82
41712;BME280;27399;51.516;13.670;2023-03-03T08:38:34;101250.84;;;1.82;82.94
41712;BME280;27399;51.516;13.670;2023-03-03T08:41:00;101252.44;;;1.99;82.71
41712;BME280;27399;51.516;13.670;2023-03-03T08:43:26;101253.97;;;1.94;82.80
41712;BME280;27399;51.516;13.670;2023-03-03T08:45:54;101257.25;;;2.10;82.42
41712;BME280;27399;51.516;13.670;2023-03-03T08:48:22;101261.75;;;2.14;82.67
41712;BME280;27399;51.516;13.670;2023-03-03T08:50:48;101268.34;;;2.25;82.44
41712;BME280;27399;51.516;13.670;2023-03-03T08:53:14;101264.53;;;2.17;82.67
41712;BME280;27399;51.516;13.670;2023-03-03T08:55:41;101274.66;;;2.06;83.04
41712;BME280;27399;51.516;13.670;2023-03-03T08:58:06;101272.28;;;2.14;83.02
41712;BME280;27399;51.516;13.670;2023-03-03T09:00:32;101245.38;;;1.98;82.45
41712;BME280;27399;51.516;13.670;2023-03-03T09:02:58;101275.84;;;2.14;83.51
41712;BME280;27399;51.516;13.670;2023-03-03T09:05:25;101272.72;;;2.47;82.48
41712;BME280;27399;51.516;13.670;2023-03-03T09:07:51;101276.84;;;2.18;83.12
41712;BME280;27399;51.516;13.670;2023-03-03T09:10:23;101269.38;;;2.06;83.04
41712;BME280;27399;51.516;13.670;2023-03-03T09:12:52;101267.47;;;2.25;82.75
41712;BME280;27399;51.516;13.670;2023-03-03T09:15:25;101261.75;;;2.14;82.33
41712;BME280;27399;51.516;13.670;2023-03-03T09:17:52;101266.38;;;2.20;83.41
41712;BME280;27399;51.516;13.670;2023-03-03T09:22:59;101257.06;;;2.05;82.15
41712;BME280;27399;51.516;13.670;2023-03-03T09:25:41;101259.41;;;2.20;81.72
41712;BME280;27399;51.516;13.670;2023-03-03T09:28:22;101266.31;;;2.18;81.43
41712;BME280;27399;51.516;13.670;2023-03-03T09:30:49;101266.06;;;2.12;81.49
41712;BME280;27399;51.516;13.670;2023-03-03T09:33:41;101255.28;;;2.27;81.08
41712;BME280;27399;51.516;13.670;2023-03-03T09:36:27;101266.16;;;2.36;81.72
41712;BME280;27399;51.516;13.670;2023-03-03T09:38:54;101236.38;;;2.14;81.50
41712;BME280;27399;51.516;13.670;2023-03-03T09:47:11;101266.19;;;2.60;81.44
41712;BME280;27399;51.516;13.670;2023-03-03T09:50:04;101259.47;;;2.46;81.71
41712;BME280;27399;51.516;13.670;2023-03-03T09:58:17;101269.13;;;2.45;81.97
41712;BME280;27399;51.516;13.670;2023-03-03T10:06:40;101279.09;;;2.54;82.48
41712;BME280;27399;51.516;13.670;2023-03-03T10:12:08;101281.16;;;2.61;82.06
41712;BME280;27399;51.516;13.670;2023-03-03T10:26:27;101282.38;;;2.71;82.20
41712;BME280;27399;51.516;13.670;2023-03-03T10:29:17;101281.72;;;2.77;82.07
41712;BME280;27399;51.516;13.670;2023-03-03T10:46:00;101297.28;;;2.71;81.69
41712;BME280;27399;51.516;13.670;2023-03-03T11:02:06;101300.28;;;2.57;81.92
41712;BME280;27399;51.516;13.670;2023-03-03T11:04:41;101302.06;;;2.81;81.21
41712;BME280;27399;51.516;13.670;2023-03-03T11:10:19;101286.81;;;2.97;81.69
41712;BME280;27399;51.516;13.670;2023-03-03T11:15:41;101284.50;;;2.82;81.36
41712;BME280;27399;51.516;13.670;2023-03-03T11:29:56;101279.06;;;2.77;81.93
41712;BME280;27399;51.516;13.670;2023-03-03T11:32:27;101267.31;;;2.91;82.13
41712;BME280;27399;51.516;13.670;2023-03-03T11:35:21;101269.41;;;3.00;82.16
41712;BME280;27399;51.516;13.670;2023-03-03T11:40:40;101254.47;;;3.01;81.67
41712;BME280;27399;51.516;13.670;2023-03-03T11:43:18;101253.81;;;2.82;82.25
41712;BME280;27399;51.516;13.670;2023-03-03T11:45:58;101256.44;;;3.06;82.50
41712;BME280;27399;51.516;13.670;2023-03-03T11:49:08;101249.03;;;2.96;81.99
41712;BME280;27399;51.516;13.670;2023-03-03T11:51:45;101257.94;;;3.00;82.02
41712;BME280;27399;51.516;13.670;2023-03-03T11:54:20;101252.00;;;3.05;82.66
41712;BME280;27399;51.516;13.670;2023-03-03T11:56:48;101249.06;;;2.98;82.83
41712;BME280;27399;51.516;13.670;2023-03-03T12:07:41;101235.25;;;3.29;81.86
41712;BME280;27399;51.516;13.670;2023-03-03T12:10:23;101229.06;;;3.29;82.16
41712;BME280;27399;51.516;13.670;2023-03-03T12:15:57;101228.38;;;3.34;81.87
41712;BME280;27399;51.516;13.670;2023-03-03T12:21:33;101229.81;;;3.24;81.60
41712;BME280;27399;51.516;13.670;2023-03-03T12:24:33;101223.38;;;3.16;81.99
41712;BME280;27399;51.516;13.670;2023-03-03T12:35:23;101226.91;;;3.17;82.38
41712;BME280;27399;51.516;13.670;2023-03-03T12:40:34;101226.53;;;3.32;81.63
41712;BME280;27399;51.516;13.670;2023-03-03T12:44:02;101225.91;;;3.13;81.97
41712;BME280;27399;51.516;13.670;2023-03-03T12:48:49;101214.56;;;3.41;81.43
41712;BME280;27399;51.516;13.670;2023-03-03T12:56:59;101206.97;;;3.25;81.45
41712;BME280;27399;51.516;13.670;2023-03-03T13:05:55;101204.63;;;3.34;82.23
41712;BME280;27399;51.516;13.670;2023-03-03T13:11:21;101188.00;;;3.63;81.38
41712;BME280;27399;51.516;13.670;2023-03-03T13:16:47;101186.97;;;3.58;82.13
41712;BME280;27399;51.516;13.670;2023-03-03T13:19:26;101187.59;;;3.50;81.39
41712;BME280;27399;51.516;13.670;2023-03-03T13:22:01;101181.56;;;3.54;81.02
41712;BME280;27399;51.516;13.670;2023-03-03T13:27:39;101166.25;;;3.70;80.51
41712;BME280;27399;51.516;13.670;2023-03-03T13:30:22;101183.00;;;3.72;81.61
41712;BME280;27399;51.516;13.670;2023-03-03T13:35:50;101188.41;;;3.77;80.02
41712;BME280;27399;51.516;13.670;2023-03-03T13:38:40;101188.22;;;3.69;80.84
41712;BME280;27399;51.516;13.670;2023-03-03T13:41:44;101177.84;;;3.75;81.59
41712;BME280;27399;51.516;13.670;2023-03-03T13:44:17;101176.31;;;3.29;81.06
41712;BME280;27399;51.516;13.670;2023-03-03T13:52:07;101158.69;;;3.82;80.47
41712;BME280;27399;51.516;13.670;2023-03-03T13:54:50;101162.94;;;3.77;80.92
41712;BME280;27399;51.516;13.670;2023-03-03T14:07:58;101162.94;;;3.48;81.60
41712;BME280;27399;51.516;13.670;2023-03-03T14:10:55;101158.41;;;3.73;81.23
41712;BME280;27399;51.516;13.670;2023-03-03T14:13:30;101142.00;;;3.54;81.11
41712;BME280;27399;51.516;13.670;2023-03-03T14:16:03;101147.72;;;3.41;81.79
41712;BME280;27399;51.516;13.670;2023-03-03T14:18:37;101152.13;;;3.68;81.10
41712;BME280;27399;51.516;13.670;2023-03-03T14:21:13;101154.47;;;3.59;82.05
41712;BME280;27399;51.516;13.670;2023-03-03T14:24:13;101151.44;;;3.75;81.34
41712;BME280;27399;51.516;13.670;2023-03-03T14:26:55;101159.34;;;3.46;81.31
41712;BME280;27399;51.516;13.670;2023-03-03T14:32:00;101158.41;;;3.73;81.21
41712;BME280;27399;51.516;13.670;2023-03-03T14:34:38;101164.50;;;3.70;81.57
41712;BME280;27399;51.516;13.670;2023-03-03T14:37:25;101157.66;;;3.77;81.08
41712;BME280;27399;51.516;13.670;2023-03-03T14:40:20;101153.94;;;3.70;81.75
41712;BME280;27399;51.516;13.670;2023-03-03T14:42:53;101157.38;;;3.68;82.03
41712;BME280;27399;51.516;13.670;2023-03-03T14:45:34;101151.28;;;3.69;80.98
41712;BME280;27399;51.516;13.670;2023-03-03T14:48:20;101142.22;;;3.90;81.23
41712;BME280;27399;51.516;13.670;2023-03-03T14:50:51;101142.44;;;3.68;80.71
41712;BME280;27399;51.516;13.670;2023-03-03T14:55:46;101120.44;;;3.97;80.22
41712;BME280;27399;51.516;13.670;2023-03-03T14:58:42;101130.53;;;4.12;80.08
41712;BME280;27399;51.516;13.670;2023-03-03T15:01:24;101128.31;;;3.95;79.88
41712;BME280;27399;51.516;13.670;2023-03-03T15:04:00;101136.50;;;4.05;79.95
41712;BME280;27399;51.516;13.670;2023-03-03T15:15:59;101133.94;;;4.08;80.01
41712;BME280;27399;51.516;13.670;2023-03-03T15:18:26;101137.00;;;3.93;80.18
41712;BME280;27399;51.516;13.670;2023-03-03T15:21:03;101142.28;;;3.93;80.26
41712;BME280;27399;51.516;13.670;2023-03-03T15:26:26;101114.69;;;3.81;80.41
41712;BME280;27399;51.516;13.670;2023-03-03T15:29:00;101143.09;;;3.90;80.27
41712;BME280;27399;51.516;13.670;2023-03-03T15:31:41;101123.09;;;3.98;80.73
41712;BME280;27399;51.516;13.670;2023-03-03T15:40:15;101120.69;;;4.06;80.88
41712;BME280;27399;51.516;13.670;2023-03-03T15:45:54;101124.19;;;4.05;80.33
41712;BME280;27399;51.516;13.670;2023-03-03T15:48:32;101117.25;;;4.09;80.48
41712;BME280;27399;51.516;13.670;2023-03-03T16:02:49;101111.28;;;3.85;80.68
41712;BME280;27399;51.516;13.670;2023-03-03T16:08:48;101108.09;;;3.96;81.93
41712;BME280;27399;51.516;13.670;2023-03-03T16:17:12;101093.88;;;3.91;81.59
41712;BME280;27399;51.516;13.670;2023-03-03T16:20:00;101096.72;;;3.98;81.55
41712;BME280;27399;51.516;13.670;2023-03-03T16:28:22;101098.41;;;4.27;80.38
41712;BME280;27399;51.516;13.670;2023-03-03T16:34:25;101087.16;;;4.02;80.45
41712;BME280;27399;51.516;13.670;2023-03-03T16:37:01;101111.31;;;4.16;80.37
41712;BME280;27399;51.516;13.670;2023-03-03T16:42:25;101108.09;;;3.96;81.06
41712;BME280;27399;51.516;13.670;2023-03-03T16:50:26;101086.13;;;3.97;80.81
41712;BME280;27399;51.516;13.670;2023-03-03T16:53:23;101106.91;;;4.16;80.70
41712;BME280;27399;51.516;13.670;2023-03-03T16:58:34;101100.41;;;4.03;80.90
41712;BME280;27399;51.516;13.670;2023-03-03T17:01:27;101112.28;;;4.19;80.78
41712;BME280;27399;51.516;13.670;2023-03-03T17:04:34;101106.91;;;4.16;81.02
41712;BME280;27399;51.516;13.670;2023-03-03T17:10:15;101119.06;;;3.81;81.34
41712;BME280;27399;51.516;13.670;2023-03-03T17:16:03;101117.31;;;3.81;81.61
41712;BME280;27399;51.516;13.670;2023-03-03T17:30:05;101112.91;;;3.80;82.03
41712;BME280;27399;51.516;13.670;2023-03-03T17:32:57;101112.44;;;3.65;81.99
41712;BME280;27399;51.516;13.670;2023-03-03T17:41:35;101108.22;;;3.70;81.88
41712;BME280;27399;51.516;13.670;2023-03-03T17:44:48;101107.06;;;3.91;81.47
41712;BME280;27399;51.516;13.670;2023-03-03T17:47:36;101107.06;;;3.91;81.09